createdAt,value
2022-11-24T00:00:04.063Z,1.95
2022-11-24T00:05:07.502Z,1.63
2022-11-24T00:10:09.404Z,1.98
2022-11-24T00:15:10.791Z,1.83
2022-11-24T00:20:12.088Z,1.90
2022-11-24T00:25:13.400Z,1.88
2022-11-24T00:30:14.866Z,1.85
2022-11-24T00:35:16.166Z,2.13
2022-11-24T00:40:17.453Z,1.95
2022-11-24T00:45:18.770Z,2.38
2022-11-24T00:50:21.130Z,1.85
2022-11-24T00:55:22.486Z,1.48
2022-11-24T01:00:23.813Z,1.98
2022-11-24T01:05:25.165Z,1.55
2022-11-24T01:10:26.508Z,2.60
2022-11-24T01:15:30.020Z,1.90
2022-11-24T01:20:31.922Z,2.03
2022-11-24T01:25:33.240Z,2.45
2022-11-24T01:30:34.574Z,1.92
2022-11-24T01:35:36.467Z,1.77
2022-11-24T01:40:37.732Z,2.35
2022-11-24T01:45:42.186Z,1.73
2022-11-24T01:50:43.535Z,2.33
2022-11-24T01:55:45.182Z,1.63
2022-11-24T02:00:46.600Z,2.70
2022-11-24T02:05:53.948Z,2.80
2022-11-24T02:10:55.254Z,2.90
2022-11-24T02:15:56.592Z,2.40
2022-11-24T02:20:58.811Z,2.33
2022-11-24T02:26:18.690Z,2.05
2022-11-24T02:31:20.064Z,2.05
2022-11-24T02:36:21.523Z,2.30
2022-11-24T02:41:24.364Z,2.17
2022-11-24T02:46:25.979Z,2.08
2022-11-24T02:51:27.927Z,2.03
2022-11-24T02:56:29.347Z,1.90
2022-11-24T03:01:30.715Z,2.67
2022-11-24T03:06:32.085Z,2.03
2022-11-24T03:11:33.381Z,2.33
2022-11-24T03:16:34.736Z,1.88
2022-11-24T03:21:36.321Z,1.85
2022-11-24T03:26:37.653Z,1.60
2022-11-24T03:31:39.001Z,2.10
2022-11-24T03:36:40.351Z,1.90
2022-11-24T03:41:41.681Z,2.60
2022-11-24T03:46:43.079Z,2.78
2022-11-24T03:51:44.507Z,2.28
2022-11-24T03:56:45.817Z,2.35
2022-11-24T04:01:47.164Z,2.08
2022-11-24T04:06:48.500Z,2.58
2022-11-24T04:12:08.277Z,2.58
2022-11-24T04:22:10.881Z,2.22
2022-11-24T04:31:12.434Z,2.60
2022-11-24T04:36:13.909Z,2.90
2022-11-24T04:41:15.182Z,2.60
2022-11-24T04:46:16.842Z,2.85
2022-11-24T04:51:18.338Z,3.10
2022-11-24T04:56:19.645Z,2.15
2022-11-24T05:01:20.987Z,3.33
2022-11-24T05:06:23.164Z,2.88
2022-11-24T05:11:24.456Z,2.30
2022-11-24T05:16:25.881Z,2.67
2022-11-24T05:21:27.601Z,2.45
2022-11-24T05:26:28.941Z,2.22
2022-11-24T05:31:30.255Z,2.63
2022-11-24T05:36:50.122Z,2.38
2022-11-24T05:46:52.741Z,2.97
2022-11-24T05:51:54.054Z,2.17
2022-11-24T05:56:55.674Z,2.30
2022-11-24T06:01:57.060Z,2.65
2022-11-24T06:06:58.435Z,3.38
2022-11-24T06:11:59.752Z,1.88
2022-11-24T06:17:01.394Z,1.63
2022-11-24T06:22:02.720Z,1.77
2022-11-24T06:27:04.053Z,1.85
2022-11-24T06:32:05.731Z,1.35
2022-11-24T06:37:07.062Z,1.02
2022-11-24T06:42:08.720Z,0.95
2022-11-24T06:47:10.078Z,1.02
2022-11-24T06:52:11.398Z,1.13
2022-11-24T06:57:12.724Z,0.80
2022-11-24T07:02:14.019Z,0.82
2022-11-24T07:07:15.344Z,0.70
2022-11-24T07:12:16.689Z,1.00
2022-11-24T07:17:17.990Z,1.08
2022-11-24T07:22:19.299Z,0.63
2022-11-24T07:27:20.610Z,0.90
2022-11-24T07:32:21.980Z,0.75
2022-11-24T07:37:28.096Z,0.55
2022-11-24T07:42:32.310Z,0.88
2022-11-24T07:47:33.620Z,0.82
2022-11-24T07:52:35.207Z,1.48
2022-11-24T07:57:36.563Z,1.50
2022-11-24T08:02:37.888Z,1.73
2022-11-24T08:07:39.368Z,1.77
2022-11-24T08:12:41.127Z,1.20
2022-11-24T08:17:44.143Z,2.08
2022-11-24T08:22:45.547Z,1.20
2022-11-24T08:27:46.928Z,1.80
2022-11-24T08:32:48.230Z,1.95
2022-11-24T08:37:49.554Z,1.83
2022-11-24T08:42:50.887Z,1.52
2022-11-24T08:47:55.898Z,1.90
2022-11-24T08:52:57.199Z,1.58
2022-11-24T08:57:58.541Z,1.67
2022-11-24T09:02:59.926Z,1.48
2022-11-24T09:08:01.227Z,2.05
2022-11-24T09:13:02.544Z,1.80
2022-11-24T09:18:03.861Z,1.77
2022-11-24T09:23:05.458Z,1.90
2022-11-24T09:28:06.757Z,1.33
2022-11-24T09:33:08.257Z,1.13
2022-11-24T09:38:10.225Z,1.55
2022-11-24T09:43:16.771Z,1.83
2022-11-24T09:48:28.449Z,1.67
2022-11-24T09:53:41.297Z,1.17
2022-11-24T09:58:48.171Z,2.03
2022-11-24T10:03:50.748Z,1.98
2022-11-24T10:09:07.173Z,1.88
2022-11-24T10:14:27.116Z,1.20
2022-11-24T10:19:43.829Z,1.48
2022-11-24T10:24:48.454Z,1.58
2022-11-24T10:29:51.613Z,2.53
2022-11-24T10:34:53.551Z,1.23
2022-11-24T10:40:33.062Z,1.77
2022-11-24T10:45:37.306Z,2.23
2022-11-24T10:50:40.422Z,1.58
2022-11-24T10:55:54.054Z,1.63
2022-11-24T11:00:55.943Z,1.77
2022-11-24T11:06:01.464Z,1.25
2022-11-24T11:11:14.624Z,1.60
2022-11-24T11:16:23.431Z,1.73
2022-11-24T11:21:31.349Z,1.20
2022-11-24T11:26:34.639Z,1.52
2022-11-24T11:31:36.373Z,1.73
2022-11-24T11:36:48.082Z,1.33
2022-11-24T11:41:57.201Z,1.70
2022-11-24T11:46:59.036Z,2.10
2022-11-24T11:52:09.181Z,1.13
2022-11-24T11:57:11.695Z,1.70
2022-11-24T12:02:24.122Z,1.80
2022-11-24T12:07:40.749Z,2.03
2022-11-24T12:12:47.831Z,1.20
2022-11-24T12:17:58.259Z,1.02
2022-11-24T12:23:05.673Z,1.52
2022-11-24T12:28:25.502Z,1.38
2022-11-24T12:38:28.214Z,2.80
2022-11-24T12:43:36.687Z,2.13
2022-11-24T12:48:46.807Z,2.22
2022-11-24T12:53:49.324Z,1.92
2022-11-24T12:58:55.501Z,1.73
2022-11-24T13:04:15.655Z,1.67
2022-11-24T13:09:17.204Z,1.70
2022-11-24T13:14:22.543Z,1.30
2022-11-24T13:19:24.927Z,1.17
2022-11-24T13:24:28.271Z,1.73
2022-11-24T13:29:38.960Z,2.05
2022-11-24T13:34:43.170Z,2.13
2022-11-24T13:39:50.575Z,2.38
2022-11-24T13:44:52.528Z,2.13
2022-11-24T13:49:53.830Z,2.05
2022-11-24T13:54:55.388Z,1.60
2022-11-24T14:00:00.454Z,2.08
2022-11-24T14:05:01.827Z,1.50
2022-11-24T14:10:03.210Z,1.52
2022-11-24T14:15:21.802Z,2.08
2022-11-24T14:20:24.279Z,2.05
2022-11-24T14:25:27.664Z,1.95
2022-11-24T14:30:29.225Z,1.95
2022-11-24T14:35:31.895Z,2.47
2022-11-24T14:40:36.898Z,1.70
2022-11-24T14:45:39.102Z,2.20
2022-11-24T14:50:40.752Z,2.13
2022-11-24T14:55:42.366Z,2.25
2022-11-24T15:00:43.877Z,1.45
2022-11-24T15:05:55.473Z,2.00
2022-11-24T15:11:02.067Z,2.13
2022-11-24T15:16:05.866Z,2.22
2022-11-24T15:21:07.943Z,2.05
2022-11-24T15:26:13.018Z,1.35
2022-11-24T15:31:14.556Z,1.42
2022-11-24T15:36:16.672Z,1.58
2022-11-24T15:41:19.474Z,2.45
2022-11-24T15:46:20.781Z,3.45
2022-11-24T15:51:23.883Z,3.28
2022-11-24T15:56:28.216Z,2.50
2022-11-24T16:01:31.221Z,1.88
2022-11-24T16:06:32.617Z,2.85
2022-11-24T16:11:33.902Z,2.53
2022-11-24T16:16:35.292Z,1.67
2022-11-24T16:21:36.643Z,2.58
2022-11-24T16:26:38.024Z,3.00
2022-11-24T16:31:39.456Z,3.25
2022-11-24T16:36:40.944Z,4.55
2022-11-24T16:41:46.804Z,3.35
2022-11-24T16:46:48.301Z,2.92
2022-11-24T16:51:49.643Z,3.33
2022-11-24T16:56:51.205Z,2.70
2022-11-24T17:01:52.689Z,2.78
2022-11-24T17:06:54.125Z,2.85
2022-11-24T17:11:55.485Z,2.15
2022-11-24T17:16:56.850Z,2.22
2022-11-24T17:21:58.468Z,2.58
2022-11-24T17:26:59.817Z,2.15
2022-11-24T17:32:01.193Z,2.55
2022-11-24T17:37:02.538Z,2.33
2022-11-24T17:42:04.141Z,1.77
2022-11-24T17:47:05.462Z,2.08
2022-11-24T17:52:06.845Z,2.22
2022-11-24T17:57:08.141Z,2.45
2022-11-24T18:02:09.702Z,2.45
2022-11-24T18:07:11.155Z,2.35
2022-11-24T18:12:12.537Z,2.75
2022-11-24T18:17:13.899Z,2.30
2022-11-24T18:22:15.278Z,1.95
2022-11-24T18:27:16.677Z,3.70
2022-11-24T18:32:18.044Z,3.08
2022-11-24T18:37:19.396Z,2.97
2022-11-24T18:42:20.947Z,2.20
2022-11-24T18:47:22.444Z,2.50
2022-11-24T18:52:23.777Z,1.88
2022-11-24T18:57:25.066Z,2.50
2022-11-24T19:02:26.408Z,2.10
2022-11-24T19:07:27.886Z,2.53
2022-11-24T19:12:29.221Z,2.33
2022-11-24T19:17:30.556Z,2.30
2022-11-24T19:22:31.857Z,2.00
2022-11-24T19:27:34.141Z,2.42
2022-11-24T19:32:35.490Z,2.08
2022-11-24T19:37:37.188Z,2.30
2022-11-24T19:42:38.532Z,2.30
2022-11-24T19:47:39.886Z,1.58
2022-11-24T19:52:41.314Z,2.22
2022-11-24T19:57:42.616Z,2.45
2022-11-24T20:02:43.991Z,1.50
2022-11-24T20:07:45.442Z,2.63
2022-11-24T20:12:46.990Z,2.65
2022-11-24T20:17:48.366Z,2.58
2022-11-24T20:22:49.673Z,3.03
2022-11-24T20:27:51.047Z,3.30
2022-11-24T20:32:52.383Z,3.08
2022-11-24T20:37:53.762Z,3.13
2022-11-24T20:42:55.137Z,2.50
2022-11-24T20:47:56.454Z,1.73
2022-11-24T20:52:57.782Z,2.35
2022-11-24T20:57:59.079Z,2.03
2022-11-24T21:03:00.382Z,2.53
2022-11-24T21:08:01.841Z,2.65
2022-11-24T21:13:03.193Z,2.38
2022-11-24T21:18:05.533Z,2.53
2022-11-24T21:23:06.862Z,1.90
2022-11-24T21:28:09.318Z,2.13
2022-11-24T21:33:10.702Z,1.83
2022-11-24T21:38:12.257Z,2.38
2022-11-24T21:43:13.565Z,1.60
2022-11-24T21:48:14.990Z,2.03
2022-11-24T21:53:16.273Z,2.33
2022-11-24T21:58:17.564Z,1.83
2022-11-24T22:03:19.477Z,2.40
2022-11-24T22:08:21.151Z,1.80
2022-11-24T22:13:22.505Z,1.95
2022-11-24T22:18:23.825Z,1.80
2022-11-24T22:23:25.240Z,2.00
2022-11-24T22:28:26.525Z,1.50
2022-11-24T22:33:27.833Z,2.08
2022-11-24T22:38:29.772Z,2.13
2022-11-24T22:43:32.194Z,1.95
2022-11-24T22:48:33.868Z,1.30
2022-11-24T22:53:35.209Z,1.73
2022-11-24T22:58:37.052Z,2.28
2022-11-24T23:03:38.891Z,1.70
2022-11-24T23:08:40.515Z,2.20
2022-11-24T23:13:42.229Z,3.33
2022-11-24T23:18:44.292Z,1.95
2022-11-24T23:23:45.932Z,2.72
2022-11-24T23:28:47.511Z,3.55
2022-11-24T23:33:48.824Z,2.95
2022-11-24T23:38:50.430Z,2.83
2022-11-24T23:43:52.304Z,2.30
2022-11-24T23:48:54.369Z,3.45
2022-11-24T23:53:56.246Z,2.30
2022-11-24T23:58:57.920Z,2.00
